Lake Worth, Texas
Current Conditions -  °F | °C
As of 3:36 PM on Wednesday 17 Dec 2014 (Local Time) from KFTW Reporting Station
Light Rain Light Rain  
Wind Chill: 46°   Ceiling: 3600
Heat Index: 46°   Visibility: 2.5mi
Dew Point: 41°   Wind: 0mph
Humidity: 83%   Direction: NA
Pressure: 30.1"   Gusts: NA
Location:  32.8974°N, 97.4578°W
Report Text: KFTW 172136Z 00000KT 2 1/2SM -RA SCT026 OVC036 08/05 A3010 RMK AO2 VIS 1 1/4V4 LTG DSNT NE AND E RAB2054 TSE20 P0015 T00780050
Loading
Personal Weather Stations






























Interactive Weather Map New forecast layout! Learn more

10-Day Weather Forecast

Advertisements
Track Severe Weather on mobile